地図

経路データ

SID SEASON NUMBER BASIN SUBBASIN NAME ISO_TIME NATURE LAT LON WMO_WIND WMO_PRES WMO_AGENCY TRACK_TYPE DIST2LAND LANDFALL IFLAG USA_AGENCY USA_ATCF_ID USA_LAT USA_LON USA_RECORD USA_STATUS USA_WIND USA_PRES USA_SSHS USA_R34_NE USA_R34_SE USA_R34_SW USA_R34_NW USA_R50_NE USA_R50_SE USA_R50_SW USA_R50_NW USA_R64_NE USA_R64_SE USA_R64_SW USA_R64_NW USA_POCI USA_ROCI USA_RMW USA_EYE TOKYO_LAT TOKYO_LON TOKYO_GRADE TOKYO_WIND TOKYO_PRES TOKYO_R50_DIR TOKYO_R50_LONG TOKYO_R50_SHORT TOKYO_R30_DIR TOKYO_R30_LONG TOKYO_R30_SHORT TOKYO_LAND CMA_LAT CMA_LON CMA_CAT CMA_WIND CMA_PRES HKO_LAT HKO_LON HKO_CAT HKO_WIND HKO_PRES NEWDELHI_LAT NEWDELHI_LON NEWDELHI_GRADE NEWDELHI_WIND NEWDELHI_PRES NEWDELHI_CI NEWDELHI_DP NEWDELHI_POCI REUNION_LAT REUNION_LON REUNION_TYPE REUNION_WIND REUNION_PRES REUNION_TNUM REUNION_CI REUNION_RMW REUNION_R34_NE REUNION_R34_SE REUNION_R34_SW REUNION_R34_NW REUNION_R50_NE REUNION_R50_SE REUNION_R50_SW REUNION_R50_NW REUNION_R64_NE REUNION_R64_SE REUNION_R64_SW REUNION_R64_NW BOM_LAT BOM_LON BOM_TYPE BOM_WIND BOM_PRES BOM_TNUM BOM_CI BOM_RMW BOM_R34_NE BOM_R34_SE BOM_R34_SW BOM_R34_NW BOM_R50_NE BOM_R50_SE BOM_R50_SW BOM_R50_NW BOM_R64_NE BOM_R64_SE BOM_R64_SW BOM_R64_NW BOM_ROCI BOM_POCI BOM_EYE BOM_POS_METHOD BOM_PRES_METHOD NADI_LAT NADI_LON NADI_CAT NADI_WIND NADI_PRES WELLINGTON_LAT WELLINGTON_LON WELLINGTON_WIND WELLINGTON_PRES DS824_LAT DS824_LON DS824_STAGE DS824_WIND DS824_PRES TD9636_LAT TD9636_LON TD9636_STAGE TD9636_WIND TD9636_PRES TD9635_LAT TD9635_LON TD9635_WIND TD9635_PRES TD9635_ROCI NEUMANN_LAT NEUMANN_LON NEUMANN_CLASS NEUMANN_WIND NEUMANN_PRES MLC_LAT MLC_LON MLC_CLASS MLC_WIND MLC_PRES USA_GUST BOM_GUST BOM_GUST_PER REUNION_GUST REUNION_GUST_PER USA_SEAHGT USA_SEARAD_NE USA_SEARAD_SE USA_SEARAD_SW USA_SEARAD_NW STORM_SPEED STORM_DIR
1971190S06074 1972 69 SI MM ODETTE 1971-07-09 06:00:00 TS -6.42000 74.4800 reunion main 1531 1531 O____O___OO_O_ jtwc_sh SH011972 -6.70000 74.8000 -1 -6.00000 74.0000 2 9.90000 -6.70000 74.8000 TC 35 -6.70000 74.8000 2 -6.00000 74.0000 TC 25 7 215
1971190S06074 1972 69 SI MM ODETTE 1971-07-09 09:00:00 TS -6.69808 74.2799 main 1571 1571 P____P___PP_P_ SH011972 -7.04002 74.6001 -1 -6.17002 73.7925 2 -7.04002 74.6001 TC 35 -7.07033 74.6142 2 -6.17002 73.7925 TC 25 7 214
1971190S06074 1972 69 SI MM ODETTE 1971-07-09 12:00:00 TS -7.00850 74.0845 reunion main 1611 1611 O____O___OP_O_ jtwc_sh SH011972 -7.40000 74.4000 -1 -6.40000 73.6000 99 9.90000 -7.40000 74.4000 TC 35 -7.44251 74.4226 2 -6.40000 73.6000 TC 25 8 209
1971190S06074 1972 69 SI MM ODETTE 1971-07-09 15:00:00 TS -7.37168 73.8979 main 1661 1661 P____P___PP_P_ SH011972 -7.79249 74.2000 -1 -6.72750 73.4350 99 -7.79249 74.2000 TC 35 -7.81843 74.2197 2 -6.72750 73.4350 TC 25 8 206
1971190S06074 1972 69 SI MM ODETTE 1971-07-09 18:00:00 TS -7.76000 73.7200 reunion main 1711 1711 O____O___OO_O_ jtwc_sh SH011972 -8.20000 74.0000 -1 -7.10000 73.3000 99 9.90000 -8.20000 74.0000 TC 35 -8.20000 74.0000 2 -7.10000 73.3000 TC 25 8 204
1971190S06074 1972 69 SI MM ODETTE 1971-07-09 21:00:00 TS -8.13775 73.5494 main 1751 1751 P____P___PP_P_ SH011972 -8.59998 73.8074 -1 -7.45000 73.1850 99 -8.59998 73.8074 TC 35 -8.58880 73.7619 2 -7.45000 73.1850 TC 25 8 204
1971190S06074 1972 69 SI MM ODETTE 1971-07-10 00:00:00 TS -8.51702 73.3840 reunion main 1796 1796 O____O___OP_O_ jtwc_sh SH011972 -9.00000 73.6000 -1 -7.80000 73.1000 99 9.90000 -9.00000 73.6000 TC 35 -8.98509 73.5201 2 -7.80000 73.1000 TC 25 8 204
1971190S06074 1972 69 SI MM ODETTE 1971-07-10 03:00:00 TS -8.88577 73.2096 main 1846 1846 P____P___PP_P_ SH011972 -9.39253 73.3425 -1 -8.12750 73.0350 99 -9.39253 73.3425 TC 35 -9.38882 73.2932 2 -8.12750 73.0350 TC 27 8 203
1971190S06074 1972 69 SI MM ODETTE 1971-07-10 06:00:00 TS -9.28000 73.0600 reunion main 1891 1891 O____O___OO_O_ jtwc_sh SH011972 -9.80000 73.1000 -1 -8.50000 73.0000 2 9.90000 -9.80000 73.1000 TC 35 -9.80000 73.1000 2 -8.50000 73.0000 TC 30 9 197
1971190S06074 1972 69 SI MM ODETTE 1971-07-10 09:00:00 TS -9.72717 72.9478 main 1941 1941 P____P___PP_P_ SH011972 -10.2500 72.9200 -1 -8.95501 72.9776 2 -10.2500 72.9200 TC 35 -10.2259 72.9437 2 -8.95501 72.9776 TC 30 10 190
1971190S06074 1972 69 SI MM ODETTE 1971-07-10 12:00:00 TS -10.2115 72.8850 reunion main 1970 1937 O____O___OP_O_ jtwc_sh SH011972 -10.7000 72.8000 -1 -9.50000 73.0000 99 9.90000 -10.7000 72.8000 TC 35 -10.6574 72.8250 2 -9.50000 73.0000 TC 30 10 184
1971190S06074 1972 69 SI MM ODETTE 1971-07-10 15:00:00 TS -10.7140 72.8648 main 1937 1906 P____P___PP_P_ SH011972 -11.1075 72.7275 -1 -10.1350 73.0626 99 -11.1075 72.7275 TC 35 -11.0853 72.7438 2 -10.1350 73.0626 TC 30 10 179
1971190S06074 1972 69 SI MM ODETTE 1971-07-10 18:00:00 TS -11.2200 72.9000 reunion main 1906 1885 O____O___OO_O_ jtwc_sh SH011972 -11.5000 72.7000 -1 -10.8000 73.2000 99 9.90000 -11.5000 72.7000 TC 35 -11.5000 72.7000 2 -10.8000 73.2000 TC 30 10 173
1971190S06074 1972 69 SI MM ODETTE 1971-07-10 21:00:00 TS -11.7091 72.9831 main 1885 1868 P____P___PP_P_ SH011972 -11.9075 72.6850 -1 -11.4225 73.4423 99 -11.9075 72.6850 TC 35 -11.8852 72.6607 2 -11.4225 73.4423 TC 30 10 169
1971190S06074 1972 69 SI MM ODETTE 1971-07-11 00:00:00 TS -12.1715 73.0921 reunion main 1866 1853 O____O___OP_O_ jtwc_sh SH011972 -12.3000 72.7000 -1 -12.0000 73.7000 99 9.90000 -12.3000 72.7000 TC 35 -12.2574 72.6602 2 -12.0000 73.7000 TC 30 9 168
1971190S06074 1972 69 SI MM ODETTE 1971-07-11 03:00:00 TS -12.6121 73.1810 main 1853 1836 P____P___PP_P_ SH011972 -12.6500 72.7276 -1 -12.5675 73.8726 99 -12.6500 72.7276 TC 35 -12.6258 72.7046 2 -12.5675 73.8726 TC 32 9 168
1971190S06074 1972 69 SI MM ODETTE 1971-07-11 06:00:00 TS -13.0000 73.2800 reunion main 1841 1830 O____O___OO_O_ jtwc_sh SH011972 -13.0000 72.8000 -1 -13.0000 74.0000 3 9.90000 -13.0000 72.8000 TC 35 -13.0000 72.8000 2 -13.0000 74.0000 TC 35 7 164
1971190S06074 1972 69 SI MM ODETTE 1971-07-11 09:00:00 TS -13.3091 73.3888 main 1834 1829 P____P___PP_P_ SH011972 -13.3925 72.9201 -1 -13.1799 74.0852 3 -13.3925 72.9201 TC 35 -13.4009 72.9334 2 -13.1799 74.0852 TC 35 7 157
1971190S06074 1972 69 SI MM ODETTE 1971-07-11 12:00:00 TS -13.6015 73.5435 reunion main 1829 1829 O____O___OP_O_ jtwc_sh SH011972 -13.8000 73.1000 -1 -13.3000 74.2000 99 9.90000 -13.8000 73.1000 TC 35 -13.8074 73.1175 2 -13.3000 74.2000 TC 35 8 150
1971190S06074 1972 69 SI MM ODETTE 1971-07-11 15:00:00 TS -13.9591 73.7795 main 1839 1839 P____P___PP_P_ SH011972 -14.2000 73.3276 -1 -13.5926 74.4498 99 -14.2000 73.3276 TC 35 -14.2102 73.3429 2 -13.5926 74.4498 TC 37 9 146
1971190S06074 1972 69 SI MM ODETTE 1971-07-11 18:00:00 TS -14.3200 74.0400 reunion main 1845 1845 O____O___OO_O_ jtwc_sh SH011972 -14.6000 73.6000 -1 -13.9000 74.7000 99 9.90000 -14.6000 73.6000 TC 35 -14.6000 73.6000 2 -13.9000 74.7000 TC 40 8 145
1971190S06074 1972 69 SI MM ODETTE 1971-07-11 21:00:00 TS -14.6432 74.2689 main 1861 1857 P____P___PP_P_ SH011972 -15.0150 73.8925 -1 -14.0925 74.8301 99 -15.0150 73.8925 TC 35 -15.0012 73.8992 2 -14.0925 74.8301 TC 40 8 146
1971190S06074 1972 69 SI MM ODETTE 1971-07-12 00:00:00 TS -14.9566 74.4844 reunion main 1865 1861 O____O___OP_O_ jtwc_sh SH011972 -15.4000 74.2000 -1 -14.3000 74.9000 99 9.90000 -15.4000 74.2000 TC 35 -15.3829 74.2218 2 -14.3000 74.9000 TC 40 8 149
1971190S06074 1972 69 SI MM ODETTE 1971-07-12 03:00:00 TS -15.3116 74.6927 main 1873 1869 P____P___PP_P_ SH011972 -15.7450 74.5225 -1 -14.6725 74.9425 99 -15.7450 74.5225 TC 35 -15.7231 74.5335 2 -14.6725 74.9425 TC 40 8 149
1971190S06074 1972 69 SI MM ODETTE 1971-07-12 06:00:00 TS -15.6000 74.8800 reunion main 1882 1879 O____O___OO_O_ jtwc_sh SH011972 -16.0000 74.8000 -1 -15.0000 75.0000 3 9.90000 -16.0000 74.8000 TC 35 -16.0000 74.8000 2 -15.0000 75.0000 TC 40 5 142
1971190S06074 1972 69 SI MM ODETTE 1971-07-12 09:00:00 TS -15.7248 75.0315 main 1889 1889 P____P___PP_P_ SH011972 -16.1224 74.9802 -1 -15.0949 75.1126 3 -16.1224 74.9802 TC 35 -16.1894 74.9719 2 -15.0949 75.1126 TC 40 3 123
1971190S06074 1972 69 SI MM ODETTE 1971-07-12 12:00:00 TS -15.7834 75.1792 reunion main 1906 1906 O____O___OP_O_ jtwc_sh SH011972 -16.2000 75.1000 -1 -15.1000 75.3000 99 9.90000 -16.2000 75.1000 TC 35 -16.3171 75.0958 2 -15.1000 75.3000 TC 40 4 114
1971190S06074 1972 69 SI MM ODETTE 1971-07-12 15:00:00 TS -15.8703 75.3624 main 1923 1923 P____P___PP_P_ SH011972 -16.3500 75.2000 -1 -15.1201 75.6076 99 -16.3500 75.2000 TC 35 -16.4113 75.1967 2 -15.1201 75.6076 TC 40 4 119
1971190S06074 1972 69 SI MM ODETTE 1971-07-12 18:00:00 TS -15.9800 75.5400 reunion main 1930 1930 O____O___OO_O_ jtwc_sh SH011972 -16.5000 75.3000 -1 -15.2000 75.9000 99 9.90000 -16.5000 75.3000 TC 35 -16.5000 75.3000 2 -15.2000 75.9000 TC 40 4 131
1971190S06074 1972 69 SI MM ODETTE 1971-07-12 21:00:00 TS -16.1365 75.6874 main 1947 1944 P____P___PP_P_ SH011972 -16.6000 75.4425 -1 -15.4349 76.0524 99 -16.6000 75.4425 TC 35 -16.6128 75.4470 2 -15.4349 76.0524 TC 40 4 142
1971190S06074 1972 69 SI MM ODETTE 1971-07-13 00:00:00 TS -16.3055 75.8000 reunion main 1951 1948 O____O___OP_O_ jtwc_sh SH011972 -16.7000 75.6000 -1 -15.7000 76.1000 99 9.90000 -16.7000 75.6000 TC 35 -16.7275 75.6001 2 -15.7000 76.1000 TC 40 4 150
1971190S06074 1972 69 SI MM ODETTE 1971-07-13 03:00:00 TS -16.4537 75.8767 main 1955 1952 P____P___PP_P_ SH011972 -16.8350 75.7500 -1 -15.8725 76.0651 99 -16.8350 75.7500 TC 35 -16.8535 75.7532 2 -15.8725 76.0651 TC 40 3 155
1971190S06074 1972 69 SI MM ODETTE 1971-07-13 06:00:00 TS -16.6000 75.9400 reunion main 1952 1952 O____O___OO_O_ jtwc_sh SH011972 -17.0000 75.9000 -1 -16.0000 76.0000 3 9.90000 -17.0000 75.9000 TC 35 -17.0000 75.9000 2 -16.0000 76.0000 TC 40 3 152
1971190S06074 1972 69 SI MM ODETTE 1971-07-13 09:00:00 TS -16.7467 76.0411 main 1959 1957 P____P___PP_P_ SH011972 -17.1925 76.0575 -1 -16.0850 76.0149 3 -17.1925 76.0575 TC 35 -17.1785 76.0604 2 -16.0850 76.0149 TC 40 4 151
1971190S06074 1972 69 SI MM ODETTE 1971-07-13 12:00:00 TS -16.9155 76.1219 reunion main 1964 1959 O____O___OP_O_ jtwc_sh SH011972 -17.4000 76.2000 -1 -16.2000 76.0000 99 9.90000 -17.4000 76.2000 TC 35 -17.3775 76.2097 2 -16.2000 76.0000 TC 40 4 166
1971190S06074 1972 69 SI MM ODETTE 1971-07-13 15:00:00 TS -17.1376 76.1439 main 1959 1954 P____P___PP_P_ SH011972 -17.6000 76.3075 -1 -16.4500 75.8876 99 -17.6000 76.3075 TC 35 -17.5878 76.3291 2 -16.4500 75.8876 TC 40 4 0
1971190S06074 1972 69 SI MM ODETTE 1971-07-13 18:00:00 TS -17.3600 76.1200 reunion main 1951 1949 O____O___OO_O_ jtwc_sh SH011972 -17.8000 76.4000 -1 -16.7000 75.7000 99 9.90000 -17.8000 76.4000 TC 35 -17.8000 76.4000 2 -16.7000 75.7000 TC 40 4 186
1971190S06074 1972 69 SI MM ODETTE 1971-07-13 21:00:00 TS -17.5464 76.0995 main 1949 1934 P____P___PP_P_ SH011972 -18.0000 76.5449 -1 -16.8301 75.4425 99 -18.0000 76.5449 TC 30 -18.0718 76.5228 2 -16.8301 75.4425 TC 40 4 193
1971190S06074 1972 69 SI MM ODETTE 1971-07-14 00:00:00 TS -17.7065 76.0358 reunion main 1934 1930 O____O___OP_O_ jtwc_sh SH011972 -18.2000 76.6000 -1 -16.9000 75.2000 99 9.90000 -18.2000 76.6000 TC 25 -18.3327 76.5788 2 -16.9000 75.2000 TC 40 4 203
1971190S06074 1972 69 SI MM ODETTE 1971-07-14 03:00:00 TS -17.8692 75.9592 main 1930 1896 P____P___PP_P_ SH011972 -18.4370 76.5277 -1 -16.9723 75.1225 99 -18.4370 76.5277 TC 25 -18.5272 76.4954 2 -16.9723 75.1225 TC 45 4 230
1971190S06074 1972 69 SI MM ODETTE 1971-07-14 06:00:00 TS -17.9600 75.7200 reunion main 1896 1844 O____O___OO_O_ jtwc_sh SH011972 -18.6000 76.2000 -1 -17.0000 75.0000 3 9.90000 -18.6000 76.2000 TC 25 -18.6000 76.2000 1 -17.0000 75.0000 TC 50 7 263
1971190S06074 1972 69 SI MM ODETTE 1971-07-14 09:00:00 TS -17.9511 75.2052 main 1844 1784 P____P___PP_P_ SH011972 -18.6477 75.5481 -1 -16.9650 74.6674 3 -18.6477 75.5481 TC 25 -18.5303 75.5948 1 -16.9650 74.6674 TC 45 12 277
1971190S06074 1972 69 SI MM ODETTE 1971-07-14 12:00:00 TS -17.8256 74.5173 reunion main 1776 1708 O____O___OP_O_ jtwc_sh SH011972 -18.5000 74.7000 -1 -16.9000 74.2000 99 9.90000 -18.5000 74.7000 TC 25 -18.3282 74.7866 1 -16.9000 74.2000 TC 40 14 284
1971190S06074 1972 69 SI MM ODETTE 1971-07-14 15:00:00 TS -17.6163 73.7861 main 1708 1644 P____P___PP_P_ SH011972 -18.1252 73.8344 -1 -16.9099 73.6881 99 -18.1252 73.8344 TC 25 -18.0115 73.8853 1 -16.9099 73.6881 TC 40 15 291
1971190S06074 1972 69 SI MM ODETTE 1971-07-14 18:00:00 TS -17.2800 73.0400 reunion main 1634 1587 O____O___OO_O_ jtwc_sh SH011972 -17.6000 73.0000 -1 -16.8000 73.1000 99 9.90000 -17.6000 73.0000 TC 25 -17.6000 73.0000 1 -16.8000 73.1000 TC 40 15 301
1971190S06074 1972 69 SI MM ODETTE 1971-07-14 21:00:00 TS -16.8177 72.4073 main 1587 1543 P____P___PP_P_ SH011972 -17.0644 72.3280 -1 -16.4095 72.5024 99 -17.0644 72.3280 TC 25 -17.1405 72.3756 1 -16.4095 72.5024 TC 37 16 309
1971190S06074 1972 69 SI MM ODETTE 1971-07-15 00:00:00 TS -16.2799 71.7544 reunion main 1543 1483 O____O___OP_O_ jtwc_sh SH011972 -16.5000 71.7000 -1 -15.9000 71.8000 99 9.90000 -16.5000 71.7000 TC 25 -16.5993 71.7720 1 -15.9000 71.8000 TC 35 17 308
1971190S06074 1972 69 SI MM ODETTE 1971-07-15 03:00:00 TS -15.7646 71.0058 main 1483 1426 P____P___PP_P_ SH011972 -15.9566 71.0683 -1 -15.4505 70.8924 99 -15.9566 71.0683 TC 25 -16.0087 71.1074 1 -15.4505 70.8924 TC 32 18 304
1971190S06074 1972 69 SI MM ODETTE 1971-07-15 06:00:00 TS -15.2400 70.1800 reunion main 1431 1380 O____O___OO_O_ jtwc_sh SH011972 -15.4000 70.3000 -1 -15.0000 70.0000 2 9.90000 -15.4000 70.3000 TC 25 -15.4000 70.3000 1 -15.0000 70.0000 TC 30 19 304
1971190S06074 1972 69 SI MM ODETTE 1971-07-15 09:00:00 TS -14.6850 69.3354 main 1370 1314 P____P___PP_P_ SH011972 -14.8072 69.2901 -1 -14.5265 69.4081 2 -14.8072 69.2901 TC 25 -14.7577 69.2807 1 -14.5265 69.4081 TC 30 21 302
1971190S06074 1972 69 SI MM ODETTE 1971-07-15 12:00:00 TS -14.1420 68.3826 reunion main 1320 1247 O____O___OP_O_ jtwc_sh SH011972 -14.2000 68.1000 -1 -14.1000 68.8000 99 9.90000 -14.2000 68.1000 TC 25 -14.1097 68.1132 1 -14.1000 68.8000 TC 30 23 298
1971190S06074 1972 69 SI MM ODETTE 1971-07-15 15:00:00 TS -13.6342 67.2699 main 1253 1181 P____P___PP_P_ SH011972 -13.5622 66.8373 -1 -13.7700 67.9176 99 -13.5622 66.8373 TC 25 -13.5068 66.8396 1 -13.7700 67.9176 TC 30 25 293
1971190S06074 1972 69 SI MM ODETTE 1971-07-15 18:00:00 TS -13.1842 66.0158 reunion main 1173 1113 O____O___OO_O_ jtwc_sh SH011972 -13.0000 65.5000 -1 -13.5000 66.9000 99 9.90000 -13.0000 65.5000 TC 25 -13.0000 65.5000 1 -13.5000 66.9000 TC 30 26 289
1971190S06074 1972 69 SI MM ODETTE 1971-07-15 21:00:00 TS -12.8039 64.7370 main 1106 1048 P____P___PP_P_ SH011972 -12.5817 64.1730 -1 -13.2040 65.9172 99 -12.5817 64.1730 TC 25 -12.6258 64.1270 1 -13.2482 65.8522 TC 30 26 284
1971190S06074 1972 69 SI MM ODETTE 1971-07-16 00:00:00 TS -12.5293 63.3995 reunion main 1045 976 O____O___OP_O_ jtwc_sh SH011972 -12.3000 62.8000 -1 -13.0000 64.8000 99 9.90000 -12.3000 62.8000 TC 25 -12.3602 62.7311 1 -13.0000 64.8000 TC 30 28 279
1971190S06074 1972 69 SI MM ODETTE 1971-07-16 03:00:00 TS -12.3418 61.8798 main 981 922 P____P___PP___ SH011972 -12.1241 61.3673 -1 -12.9546 63.4655 99 -12.1241 61.3673 TC 25 -12.1645 61.3191 1 TC 29 275
1971190S06074 1972 69 SI MM ODETTE 1971-07-16 06:00:00 TS -12.2500 60.4250 reunion main 929 O____O___OO___ jtwc_sh SH011972 -12.0000 59.9000 -1 -13.0000 62.0000 2 9.90000 -12.0000 59.9000 TC 25 -12.0000 59.9000 1 29 274

IBTrACS Databaseについて

本データベースは、米国NOAAが公開する1842年以降の世界の熱帯低気圧のベストトラックデータアーカイブInternational Best Track Archive for Climate Stewardship (IBTrACS)を、ウェブで閲覧しやすい形式に変換したものです。

最終更新日:2021-12-01